Time;durP1;ratioP1;P1;durP2;ratioP2;P2;SDS_P1;SDS_P2;PMS_P1;PMS_P2;Temp;Humidity;BMP_temperature;BMP_pressure;BME280_temperature;BME280_humidity;BME280_pressure;Samples;Min_cycle;Max_cycle;Signal;HPM_P1;HPM_P2
2021/05/11 00:00:53;;;;;;;;;;;17.70;88.60;;;;;;2089909;28;1002;-50
2021/05/11 00:02:12;;;;;;;;;;;17.70;88.60;;;;;;2085332;28;1036;-51
2021/05/11 00:03:32;;;;;;;;;;;17.70;88.50;;;;;;2089500;28;878;-52
2021/05/11 00:04:51;;;;;;;;;;;17.70;88.60;;;;;;2089914;28;1357;-51
2021/05/11 00:06:10;;;;;;;;;;;17.70;89.40;;;;;;2089835;28;1885;-50
2021/05/11 00:07:30;;;;;;;;;;;17.70;88.60;;;;;;2081410;28;813;-53
2021/05/11 00:08:49;;;;;;;;;;;17.70;88.60;;;;;;2078416;28;1564;-52
2021/05/11 00:10:08;;;;;;;;;;;17.70;88.50;;;;;;2086850;28;795;-51
2021/05/11 00:11:28;;;;;;;;;;;17.70;88.60;;;;;;2090744;28;703;-51
2021/05/11 00:12:47;;;;;;;;;;;17.70;88.60;;;;;;2078150;28;1609;-51
2021/05/11 00:14:06;;;;;;;;;;;17.70;88.60;;;;;;2078071;28;710;-51
2021/05/11 00:15:26;;;;;;;;;;;17.70;88.60;;;;;;2073549;28;1477;-51
2021/05/11 00:16:45;;;;;;;;;;;17.70;88.60;;;;;;2078538;28;796;-50
2021/05/11 00:18:04;;;;;;;;;;;17.70;88.50;;;;;;2073087;28;718;-50
2021/05/11 00:19:24;;;;;;;;;;;17.70;88.50;;;;;;2078591;28;716;-50
2021/05/11 00:20:43;;;;;;;;;;;17.70;88.50;;;;;;2082423;28;975;-50
2021/05/11 00:22:02;;;;;;;;;;;17.70;88.50;;;;;;2082166;28;724;-51
2021/05/11 00:23:21;;;;;;;;;;;17.70;88.50;;;;;;2073338;28;969;-55
2021/05/11 00:24:40;;;;;;;;;;;17.70;89.20;;;;;;2079600;28;1475;-51
2021/05/11 00:26:00;;;;;;;;;;;17.70;88.50;;;;;;2090160;28;1441;-51
2021/05/11 00:27:19;;;;;;;;;;;17.70;88.60;;;;;;2082201;28;791;-54
2021/05/11 00:28:38;;;;;;;;;;;17.70;88.60;;;;;;2073073;28;731;-54
2021/05/11 00:29:57;;;;;;;;;;;17.70;88.60;;;;;;2073496;28;721;-50
2021/05/11 00:31:17;;;;;;;;;;;17.70;88.50;;;;;;2085464;28;1060;-53
2021/05/11 00:32:36;;;;;;;;;;;17.70;88.50;;;;;;2090052;28;1047;-54
2021/05/11 00:33:56;;;;;;;;;;;17.70;88.50;;;;;;2090292;28;709;-50
2021/05/11 00:35:15;;;;;;;;;;;17.70;88.50;;;;;;2090270;28;1373;-52
2021/05/11 00:36:34;;;;;;;;;;;17.70;88.60;;;;;;2081326;28;716;-53
2021/05/11 00:37:53;;;;;;;;;;;17.70;88.50;;;;;;2078032;28;730;-51
2021/05/11 00:39:12;;;;;;;;;;;17.70;88.50;;;;;;2086509;28;1505;-51
2021/05/11 00:40:31;;;;;;;;;;;17.60;88.40;;;;;;2082928;28;1615;-50
2021/05/11 00:41:51;;;;;;;;;;;17.70;89.40;;;;;;2081071;28;784;-52
2021/05/11 00:43:10;;;;;;;;;;;17.70;89.30;;;;;;2064982;28;793;-50
2021/05/11 00:44:29;;;;;;;;;;;17.60;88.40;;;;;;2066207;28;724;-51
2021/05/11 00:45:49;;;;;;;;;;;17.70;88.50;;;;;;2078359;28;725;-52
2021/05/11 00:47:08;;;;;;;;;;;17.70;88.50;;;;;;2081758;28;726;-51
2021/05/11 00:48:27;;;;;;;;;;;17.70;88.50;;;;;;2081612;28;733;-52
2021/05/11 00:49:48;;;;;;;;;;;17.70;88.50;;;;;;2083953;28;966;-50
2021/05/11 00:51:07;;;;;;;;;;;17.70;88.50;;;;;;2081924;28;689;-53
2021/05/11 00:52:27;;;;;;;;;;;17.60;88.40;;;;;;2073312;28;720;-50
2021/05/11 00:53:46;;;;;;;;;;;17.60;88.40;;;;;;2070000;28;1837;-50
2021/05/11 00:55:05;;;;;;;;;;;17.60;88.30;;;;;;2070037;28;1354;-51
2021/05/11 00:56:26;;;;;;;;;;;17.60;89.00;;;;;;2072201;28;1305;-52
2021/05/11 00:57:45;;;;;;;;;;;17.60;89.10;;;;;;2069672;28;2356;-53
2021/05/11 00:59:09;;;;;;;;;;;17.60;88.30;;;;;;2061840;28;751;-53
2021/05/11 01:00:30;;;;;;;;;;;17.60;88.30;;;;;;2076636;28;999;-50
2021/05/11 01:01:49;;;;;;;;;;;17.60;88.40;;;;;;2083308;28;870;-52
2021/05/11 01:03:08;;;;;;;;;;;17.60;88.40;;;;;;2072720;28;1266;-51
2021/05/11 01:04:27;;;;;;;;;;;17.60;88.30;;;;;;2077614;28;743;-49
2021/05/11 01:05:47;;;;;;;;;;;17.60;88.40;;;;;;2081867;28;716;-51
2021/05/11 01:07:06;;;;;;;;;;;17.60;88.30;;;;;;2088186;28;1715;-51
2021/05/11 01:08:25;;;;;;;;;;;17.60;89.00;;;;;;2088269;28;1263;-50
2021/05/11 01:09:44;;;;;;;;;;;17.60;88.30;;;;;;2081899;28;761;-51
2021/05/11 01:11:03;;;;;;;;;;;17.60;88.30;;;;;;2081609;28;791;-50
2021/05/11 01:12:23;;;;;;;;;;;17.60;88.30;;;;;;2081366;28;712;-50
2021/05/11 01:13:42;;;;;;;;;;;17.60;88.40;;;;;;2072607;28;736;-50
2021/05/11 01:15:01;;;;;;;;;;;17.60;88.30;;;;;;2078020;28;1468;-50
2021/05/11 01:16:20;;;;;;;;;;;17.60;88.50;;;;;;2072922;28;1490;-50
2021/05/11 01:17:49;;;;;;;;;;;17.60;88.40;;;;;;2081591;28;1898;-51
2021/05/11 01:19:15;;;;;;;;;;;17.60;88.40;;;;;;2081677;28;777;-50
2021/05/11 01:20:41;;;;;;;;;;;17.60;88.40;;;;;;2082789;28;1459;-51
2021/05/11 01:22:23;;;;;;;;;;;17.60;88.30;;;;;;2089903;28;790;-52
2021/05/11 01:24:30;;;;;;;;;;;17.60;88.30;;;;;;2089779;28;820;-51
2021/05/11 01:25:29;;;;;;;;;;;17.60;88.40;;;;;;2084861;28;1500;-52
2021/05/11 01:27:12;;;;;;;;;;;17.60;88.40;;;;;;2089074;28;771;-51
2021/05/11 01:49:13;;;;;;;;;;;17.50;88.30;;;;;;2081512;28;779;-50
2021/05/11 01:51:26;;;;;;;;;;;17.50;88.20;;;;;;2087941;28;1395;-50
2021/05/11 01:58:06;;;;;;;;;;;17.50;88.30;;;;;;2072493;28;730;-49
2021/05/11 01:59:13;;;;;;;;;;;17.50;88.20;;;;;;2070612;28;1007;-49
2021/05/11 02:10:44;;;;;;;;;;;17.50;88.20;;;;;;2089583;28;714;-49
2021/05/11 02:23:05;;;;;;;;;;;17.50;88.20;;;;;;2088659;28;772;-50
2021/05/11 02:24:24;;;;;;;;;;;17.40;88.10;;;;;;2088249;28;695;-50
2021/05/11 02:25:43;;;;;;;;;;;17.50;88.90;;;;;;2088930;28;759;-53
2021/05/11 02:27:03;;;;;;;;;;;17.40;88.70;;;;;;2085224;28;2170;-52
2021/05/11 02:28:23;;;;;;;;;;;17.40;88.80;;;;;;2086874;28;1091;-50
2021/05/11 02:29:42;;;;;;;;;;;17.40;88.10;;;;;;2072483;28;754;-49
2021/05/11 02:31:02;;;;;;;;;;;17.40;88.10;;;;;;2083309;28;1403;-51
2021/05/11 02:32:21;;;;;;;;;;;17.40;88.10;;;;;;2080769;28;1008;-50
2021/05/11 02:33:40;;;;;;;;;;;17.40;88.10;;;;;;2068904;28;1507;-51
2021/05/11 02:35:00;;;;;;;;;;;17.40;88.10;;;;;;2082581;28;1374;-50
2021/05/11 02:36:19;;;;;;;;;;;17.40;88.10;;;;;;2080210;28;763;-51
2021/05/11 02:37:38;;;;;;;;;;;17.40;88.10;;;;;;2085796;28;1981;-50
2021/05/11 02:38:57;;;;;;;;;;;17.50;88.20;;;;;;2089676;28;740;-50
2021/05/11 02:40:18;;;;;;;;;;;17.40;88.00;;;;;;2080767;28;766;-51
2021/05/11 02:41:40;;;;;;;;;;;17.40;88.00;;;;;;2078570;28;1641;-50
2021/05/11 02:43:03;;;;;;;;;;;17.40;88.70;;;;;;2080758;28;727;-50
2021/05/11 02:44:23;;;;;;;;;;;17.40;88.10;;;;;;2075301;28;1419;-50
2021/05/11 02:45:42;;;;;;;;;;;17.40;88.10;;;;;;2085709;28;759;-53
2021/05/11 02:47:01;;;;;;;;;;;17.40;88.10;;;;;;2089367;28;713;-50
2021/05/11 02:48:20;;;;;;;;;;;17.40;88.10;;;;;;2088900;28;783;-52
2021/05/11 02:49:43;;;;;;;;;;;17.40;88.10;;;;;;2080670;28;751;-50
2021/05/11 02:51:02;;;;;;;;;;;17.40;88.80;;;;;;2083491;28;1197;-50
2021/05/11 02:52:22;;;;;;;;;;;17.40;88.10;;;;;;2081154;28;1307;-52
2021/05/11 02:53:41;;;;;;;;;;;17.40;88.10;;;;;;2081336;28;772;-51
2021/05/11 02:55:00;;;;;;;;;;;17.40;88.10;;;;;;2080527;28;1776;-52
2021/05/11 02:56:19;;;;;;;;;;;17.40;88.10;;;;;;2080988;28;690;-53
2021/05/11 02:57:38;;;;;;;;;;;17.40;88.10;;;;;;2084276;28;1950;-50
2021/05/11 02:58:58;;;;;;;;;;;17.40;88.10;;;;;;2070664;28;1593;-52
2021/05/11 03:00:18;;;;;;;;;;;17.40;88.10;;;;;;2082780;28;753;-50
2021/05/11 03:01:37;;;;;;;;;;;17.40;88.10;;;;;;2081428;28;1074;-49
2021/05/11 03:02:57;;;;;;;;;;;17.40;88.10;;;;;;2080550;28;1025;-50
2021/05/11 03:04:16;;;;;;;;;;;17.40;88.10;;;;;;2080039;28;712;-51
2021/05/11 03:05:35;;;;;;;;;;;17.40;88.10;;;;;;2080938;28;1179;-50
2021/05/11 03:06:57;;;;;;;;;;;17.40;88.90;;;;;;2080949;28;720;-50
2021/05/11 03:08:16;;;;;;;;;;;17.40;88.20;;;;;;2072288;28;770;-49
2021/05/11 03:09:36;;;;;;;;;;;17.40;88.20;;;;;;2077710;28;714;-52
2021/05/11 03:10:55;;;;;;;;;;;17.40;88.10;;;;;;2081036;28;723;-52
2021/05/11 03:12:14;;;;;;;;;;;17.40;88.20;;;;;;2087128;28;1832;-49
2021/05/11 03:13:34;;;;;;;;;;;17.40;88.10;;;;;;2080243;28;747;-49
2021/05/11 03:14:53;;;;;;;;;;;17.40;88.10;;;;;;2085039;28;1324;-51
2021/05/11 03:16:12;;;;;;;;;;;17.40;88.10;;;;;;2089277;28;689;-50
2021/05/11 03:17:32;;;;;;;;;;;17.40;88.10;;;;;;2080232;28;1907;-52
2021/05/11 03:18:51;;;;;;;;;;;17.40;88.10;;;;;;2077105;28;781;-50
2021/05/11 03:20:10;;;;;;;;;;;17.40;88.80;;;;;;2085707;28;821;-51
2021/05/11 03:21:30;;;;;;;;;;;17.40;88.90;;;;;;2089306;28;759;-50
2021/05/11 03:22:49;;;;;;;;;;;17.40;88.20;;;;;;2080308;28;765;-52
2021/05/11 03:24:10;;;;;;;;;;;17.40;88.20;;;;;;2068730;28;1188;-49
2021/05/11 03:25:29;;;;;;;;;;;17.40;88.20;;;;;;2075114;28;1447;-50
2021/05/11 03:26:50;;;;;;;;;;;17.30;88.10;;;;;;2086046;28;732;-50
2021/05/11 03:28:09;;;;;;;;;;;17.30;88.20;;;;;;2085541;28;1317;-50
2021/05/11 03:29:28;;;;;;;;;;;17.30;88.20;;;;;;2077588;28;1195;-51
2021/05/11 03:30:47;;;;;;;;;;;17.30;88.10;;;;;;2080830;28;1284;-51
2021/05/11 03:32:07;;;;;;;;;;;17.30;88.20;;;;;;2084379;28;1157;-51
2021/05/11 03:33:26;;;;;;;;;;;17.30;88.10;;;;;;2073969;28;1343;-54
2021/05/11 03:34:45;;;;;;;;;;;17.30;88.90;;;;;;2079869;28;1373;-50
2021/05/11 03:36:05;;;;;;;;;;;17.30;88.90;;;;;;2084400;28;1820;-50
2021/05/11 03:37:24;;;;;;;;;;;17.30;88.20;;;;;;2084391;28;1957;-49
2021/05/11 03:38:45;;;;;;;;;;;17.30;88.20;;;;;;2087100;28;1400;-50
2021/05/11 03:40:04;;;;;;;;;;;17.30;88.20;;;;;;2086198;28;1092;-51
2021/05/11 03:41:27;;;;;;;;;;;17.30;88.20;;;;;;2082825;28;1353;-49
2021/05/11 03:42:53;;;;;;;;;;;17.30;88.20;;;;;;2083518;28;1240;-51
2021/05/11 03:44:16;;;;;;;;;;;17.30;88.30;;;;;;2076179;28;1291;-53
2021/05/11 03:45:40;;;;;;;;;;;17.30;88.30;;;;;;2080528;28;1082;-53
2021/05/11 03:46:59;;;;;;;;;;;17.30;88.20;;;;;;2076100;28;1491;-49
2021/05/11 03:48:19;;;;;;;;;;;17.30;88.20;;;;;;2078771;28;1149;-51
2021/05/11 03:49:38;;;;;;;;;;;17.30;88.20;;;;;;2085831;28;1262;-50
2021/05/11 03:51:05;;;;;;;;;;;17.30;88.20;;;;;;2076698;28;1259;-50
2021/05/11 03:52:23;;;;;;;;;;;17.30;88.20;;;;;;2076355;28;1528;-51
2021/05/11 03:53:43;;;;;;;;;;;17.30;88.20;;;;;;2070696;28;1202;-51
2021/05/11 03:55:02;;;;;;;;;;;17.30;88.20;;;;;;2069635;28;1543;-50
2021/05/11 03:56:21;;;;;;;;;;;17.30;89.00;;;;;;2083072;28;1137;-50
2021/05/11 03:57:41;;;;;;;;;;;17.30;89.10;;;;;;2080828;28;1902;-53
2021/05/11 03:59:01;;;;;;;;;;;17.30;88.30;;;;;;2081932;28;937;-50
2021/05/11 04:00:20;;;;;;;;;;;17.30;88.30;;;;;;2081857;28;725;-50
2021/05/11 04:01:39;;;;;;;;;;;17.30;88.30;;;;;;2078239;28;889;-51
2021/05/11 04:02:58;;;;;;;;;;;17.30;88.30;;;;;;2073641;28;973;-50
2021/05/11 04:04:19;;;;;;;;;;;17.30;88.70;;;;;;2078020;28;724;-50
2021/05/11 04:05:38;;;;;;;;;;;17.30;89.40;;;;;;2079183;28;759;-50
2021/05/11 04:06:58;;;;;;;;;;;17.30;90.00;;;;;;2077622;28;1654;-50
2021/05/11 04:08:31;;;;;;;;;;;17.30;90.20;;;;;;2086761;28;694;-50
2021/05/11 04:09:55;;;;;;;;;;;17.30;90.20;;;;;;2090408;28;726;-50
2021/05/11 04:13:55;;;;;;;;;;;17.30;90.30;;;;;;2084614;28;802;-52
2021/05/11 04:17:26;;;;;;;;;;;17.30;90.50;;;;;;2090552;28;2031;-50
2021/05/11 04:18:45;;;;;;;;;;;17.30;90.60;;;;;;2075423;28;1956;-50
2021/05/11 04:20:04;;;;;;;;;;;17.30;90.50;;;;;;2081875;28;1347;-50
2021/05/11 04:21:23;;;;;;;;;;;17.30;90.50;;;;;;2090293;28;1327;-50
2021/05/11 04:22:42;;;;;;;;;;;17.30;90.20;;;;;;2090443;28;729;-51
2021/05/11 04:24:02;;;;;;;;;;;17.30;90.10;;;;;;2081131;28;1053;-52
2021/05/11 04:25:22;;;;;;;;;;;17.30;90.10;;;;;;2086995;28;1340;-52
2021/05/11 04:26:41;;;;;;;;;;;17.30;90.00;;;;;;2081483;28;721;-50
2021/05/11 04:28:00;;;;;;;;;;;17.30;90.10;;;;;;2086815;28;720;-50
2021/05/11 04:29:20;;;;;;;;;;;17.30;90.00;;;;;;2090502;28;765;-51
2021/05/11 04:30:39;;;;;;;;;;;17.30;90.00;;;;;;2090222;28;897;-50
2021/05/11 04:31:58;;;;;;;;;;;17.30;90.00;;;;;;2087461;28;1042;-51
2021/05/11 04:33:17;;;;;;;;;;;17.30;90.00;;;;;;2083319;28;1025;-51
2021/05/11 04:34:36;;;;;;;;;;;17.30;90.00;;;;;;2072431;28;802;-50
2021/05/11 04:35:55;;;;;;;;;;;17.20;90.20;;;;;;2078558;28;1423;-50
2021/05/11 04:37:15;;;;;;;;;;;17.30;90.20;;;;;;2073103;28;1899;-50
2021/05/11 04:38:34;;;;;;;;;;;17.20;89.80;;;;;;2078211;28;886;-51
2021/05/11 04:39:54;;;;;;;;;;;17.20;89.80;;;;;;2082027;28;821;-49
2021/05/11 04:41:13;;;;;;;;;;;17.20;89.70;;;;;;2081321;28;732;-51
2021/05/11 04:42:32;;;;;;;;;;;17.20;89.80;;;;;;2081535;28;721;-53
2021/05/11 04:43:51;;;;;;;;;;;17.20;89.80;;;;;;2081370;28;706;-51
2021/05/11 04:45:13;;;;;;;;;;;17.20;89.90;;;;;;2072499;28;1450;-49
2021/05/11 04:46:51;;;;;;;;;;;17.20;89.80;;;;;;2078422;28;1894;-52
2021/05/11 04:48:10;;;;;;;;;;;17.20;89.80;;;;;;2077385;28;1836;-50
2021/05/11 04:49:30;;;;;;;;;;;17.20;90.20;;;;;;2085527;28;768;-51
2021/05/11 04:50:49;;;;;;;;;;;17.20;89.70;;;;;;2069748;28;1247;-50
2021/05/11 04:52:08;;;;;;;;;;;17.20;89.80;;;;;;2079813;28;1287;-51
2021/05/11 04:53:28;;;;;;;;;;;17.20;89.80;;;;;;2072553;28;723;-50
2021/05/11 04:54:47;;;;;;;;;;;17.20;89.70;;;;;;2082288;28;1366;-51
2021/05/11 04:56:06;;;;;;;;;;;17.20;89.70;;;;;;2089437;28;690;-51
2021/05/11 04:57:25;;;;;;;;;;;17.20;89.70;;;;;;2089313;28;1938;-51
2021/05/11 04:58:44;;;;;;;;;;;17.20;89.70;;;;;;2090082;28;707;-53
2021/05/11 05:00:04;;;;;;;;;;;17.20;89.70;;;;;;2089771;28;1652;-52
2021/05/11 05:01:24;;;;;;;;;;;17.20;89.60;;;;;;2088232;28;957;-52
2021/05/11 05:02:45;;;;;;;;;;;17.20;89.60;;;;;;2083796;28;1633;-51
2021/05/11 05:04:08;;;;;;;;;;;17.20;89.60;;;;;;2081115;28;730;-50
2021/05/11 05:05:27;;;;;;;;;;;17.20;90.10;;;;;;2072950;28;1391;-49
2021/05/11 05:06:46;;;;;;;;;;;17.20;89.70;;;;;;2078387;28;726;-49
2021/05/11 05:08:06;;;;;;;;;;;17.20;89.70;;;;;;2081421;28;746;-52
2021/05/11 05:09:25;;;;;;;;;;;17.20;89.80;;;;;;2081844;28;777;-52
2021/05/11 05:10:44;;;;;;;;;;;17.20;89.70;;;;;;2081936;28;725;-50
2021/05/11 05:12:04;;;;;;;;;;;17.20;89.70;;;;;;2081726;28;742;-49
2021/05/11 05:13:24;;;;;;;;;;;17.20;89.70;;;;;;2081808;28;1602;-49
2021/05/11 05:14:44;;;;;;;;;;;17.20;89.70;;;;;;2072437;28;1375;-50
2021/05/11 05:16:03;;;;;;;;;;;17.20;89.60;;;;;;2078509;28;738;-51
2021/05/11 05:17:22;;;;;;;;;;;17.20;90.10;;;;;;2075114;28;1902;-50
2021/05/11 05:18:41;;;;;;;;;;;17.20;89.50;;;;;;2086284;28;745;-50
2021/05/11 05:20:01;;;;;;;;;;;17.20;89.60;;;;;;2090347;28;715;-50
2021/05/11 05:21:20;;;;;;;;;;;17.20;89.60;;;;;;2090146;28;720;-51
2021/05/11 05:22:41;;;;;;;;;;;17.20;89.50;;;;;;2073047;28;777;-50
2021/05/11 05:24:07;;;;;;;;;;;17.20;89.60;;;;;;2083410;28;736;-49
2021/05/11 05:25:28;;;;;;;;;;;17.20;89.60;;;;;;2080904;28;1424;-49
2021/05/11 05:26:51;;;;;;;;;;;17.20;89.70;;;;;;2086586;28;747;-50
2021/05/11 05:28:12;;;;;;;;;;;17.20;89.70;;;;;;2081674;28;1014;-50
2021/05/11 05:29:31;;;;;;;;;;;17.20;89.80;;;;;;2073125;28;778;-50
2021/05/11 05:30:50;;;;;;;;;;;17.20;89.80;;;;;;2077411;28;1619;-50
2021/05/11 05:32:09;;;;;;;;;;;17.20;89.90;;;;;;2082296;28;1458;-50
2021/05/11 05:33:35;;;;;;;;;;;17.20;90.30;;;;;;2079872;28;1111;-51
2021/05/11 05:34:54;;;;;;;;;;;17.20;90.00;;;;;;2086854;28;1431;-50
2021/05/11 05:36:13;;;;;;;;;;;17.20;90.00;;;;;;2089907;28;734;-50
2021/05/11 05:37:33;;;;;;;;;;;17.20;90.00;;;;;;2080916;28;1906;-52
2021/05/11 05:38:53;;;;;;;;;;;17.20;90.00;;;;;;2077788;28;816;-51
2021/05/11 05:40:13;;;;;;;;;;;17.20;90.00;;;;;;2086535;28;735;-49
2021/05/11 05:41:33;;;;;;;;;;;17.20;90.00;;;;;;2082820;28;1912;-52
2021/05/11 05:42:52;;;;;;;;;;;17.20;90.00;;;;;;2081623;28;1585;-49
2021/05/11 05:44:12;;;;;;;;;;;17.20;90.00;;;;;;2080961;28;721;-51
2021/05/11 05:45:31;;;;;;;;;;;17.20;90.00;;;;;;2072647;28;1401;-49
2021/05/11 05:46:50;;;;;;;;;;;17.20;90.00;;;;;;2078000;28;714;-50
2021/05/11 05:48:09;;;;;;;;;;;17.20;90.00;;;;;;2081208;28;722;-50
2021/05/11 05:49:34;;;;;;;;;;;17.20;90.00;;;;;;2072399;28;842;-50
2021/05/11 05:50:59;;;;;;;;;;;17.10;89.90;;;;;;2070315;28;728;-51
2021/05/11 05:52:23;;;;;;;;;;;17.10;89.90;;;;;;2079851;28;730;-50
2021/05/11 05:53:42;;;;;;;;;;;17.10;89.90;;;;;;2081208;28;691;-49
2021/05/11 05:55:02;;;;;;;;;;;17.10;89.80;;;;;;2072797;28;1875;-49
2021/05/11 05:56:21;;;;;;;;;;;17.10;90.00;;;;;;2069460;28;752;-51
2021/05/11 05:57:40;;;;;;;;;;;17.10;89.80;;;;;;2077770;28;1902;-50
2021/05/11 05:58:59;;;;;;;;;;;17.10;89.80;;;;;;2080710;28;678;-51
2021/05/11 06:00:19;;;;;;;;;;;17.10;89.90;;;;;;2073742;28;1747;-50
2021/05/11 06:01:40;;;;;;;;;;;17.10;90.20;;;;;;2082572;28;1148;-49
2021/05/11 06:03:06;;;;;;;;;;;17.10;89.90;;;;;;2083369;28;1709;-49
2021/05/11 06:04:25;;;;;;;;;;;17.10;89.90;;;;;;2072663;28;1576;-51
2021/05/11 06:05:45;;;;;;;;;;;17.10;89.90;;;;;;2070896;28;1278;-51
2021/05/11 06:07:04;;;;;;;;;;;17.10;89.90;;;;;;2078998;28;1329;-51
2021/05/11 06:08:24;;;;;;;;;;;17.10;89.90;;;;;;2089296;28;1301;-51
2021/05/11 06:09:43;;;;;;;;;;;17.10;89.80;;;;;;2089618;28;698;-50
2021/05/11 06:12:36;;;;;;;;;;;17.10;89.80;;;;;;2080735;28;771;-50
2021/05/11 06:18:41;;;;;;;;;;;17.10;89.80;;;;;;2080502;28;1292;-51
2021/05/11 06:20:01;;;;;;;;;;;17.10;89.80;;;;;;2086731;28;1935;-51
2021/05/11 06:21:20;;;;;;;;;;;17.10;89.80;;;;;;2081245;28;755;-50
2021/05/11 06:22:39;;;;;;;;;;;17.10;89.80;;;;;;2080824;28;738;-51
2021/05/11 06:23:58;;;;;;;;;;;17.10;89.80;;;;;;2080613;28;762;-52
2021/05/11 06:25:17;;;;;;;;;;;17.10;89.80;;;;;;2077245;28;1321;-50
2021/05/11 06:26:37;;;;;;;;;;;17.10;89.70;;;;;;2072498;28;880;-50
2021/05/11 06:27:56;;;;;;;;;;;17.10;90.10;;;;;;2082569;28;726;-51
2021/05/11 06:29:18;;;;;;;;;;;17.10;89.70;;;;;;2072583;28;743;-50
2021/05/11 06:30:37;;;;;;;;;;;17.10;89.60;;;;;;2077430;28;2018;-49
2021/05/11 06:31:56;;;;;;;;;;;17.10;89.60;;;;;;2088843;28;1051;-50
2021/05/11 06:33:15;;;;;;;;;;;17.10;89.60;;;;;;2084323;28;1128;-50
2021/05/11 06:34:36;;;;;;;;;;;17.10;89.60;;;;;;2080589;28;799;-51
2021/05/11 06:35:55;;;;;;;;;;;17.10;89.60;;;;;;2072621;28;750;-50
2021/05/11 06:37:14;;;;;;;;;;;17.10;89.70;;;;;;2077972;28;1903;-51
2021/05/11 06:38:33;;;;;;;;;;;17.10;89.70;;;;;;2089120;28;1421;-49
2021/05/11 06:39:53;;;;;;;;;;;17.10;89.70;;;;;;2089254;28;913;-52
2021/05/11 06:41:13;;;;;;;;;;;17.10;90.10;;;;;;2089474;28;715;-49
2021/05/11 06:42:34;;;;;;;;;;;17.10;89.60;;;;;;2089618;28;711;-51
2021/05/11 06:44:02;;;;;;;;;;;17.10;89.60;;;;;;2080363;28;740;-54
2021/05/11 06:47:26;;;;;;;;;;;17.10;89.60;;;;;;2088043;28;1909;-52
2021/05/11 06:49:01;;;;;;;;;;;17.10;89.50;;;;;;2072426;28;740;-49
2021/05/11 06:50:43;;;;;;;;;;;17.10;89.50;;;;;;2081187;28;1666;-50
2021/05/11 06:53:53;;;;;;;;;;;17.10;89.50;;;;;;2063761;28;1237;-52
2021/05/11 06:55:16;;;;;;;;;;;17.10;89.50;;;;;;2087378;28;1371;-52
2021/05/11 06:56:37;;;;;;;;;;;17.10;89.50;;;;;;2081243;28;690;-55
2021/05/11 06:58:01;;;;;;;;;;;17.10;89.50;;;;;;2083231;28;1927;-51
2021/05/11 06:59:20;;;;;;;;;;;17.10;89.60;;;;;;2081000;28;790;-51
2021/05/11 07:00:42;;;;;;;;;;;17.10;89.60;;;;;;2087290;28;870;-51
2021/05/11 07:02:02;;;;;;;;;;;17.10;89.60;;;;;;2076898;28;1008;-51
2021/05/11 07:03:21;;;;;;;;;;;17.10;90.10;;;;;;2075337;28;1005;-50
2021/05/11 07:04:40;;;;;;;;;;;17.10;89.60;;;;;;2085550;28;1393;-52
2021/05/11 07:06:00;;;;;;;;;;;17.10;89.50;;;;;;2089449;28;793;-50
2021/05/11 07:07:21;;;;;;;;;;;17.10;89.50;;;;;;2071888;28;2008;-50
2021/05/11 07:08:54;;;;;;;;;;;17.10;89.50;;;;;;2077991;28;730;-49
2021/05/11 07:10:21;;;;;;;;;;;17.10;89.50;;;;;;2081010;28;738;-48
2021/05/11 07:13:13;;;;;;;;;;;17.10;89.50;;;;;;2079278;28;718;-52
2021/05/11 07:14:32;;;;;;;;;;;17.10;89.50;;;;;;2087266;28;1581;-51
2021/05/11 07:15:51;;;;;;;;;;;17.10;90.00;;;;;;2090752;28;721;-48
2021/05/11 07:17:10;;;;;;;;;;;17.10;89.50;;;;;;2082047;28;2245;-51
2021/05/11 07:18:32;;;;;;;;;;;17.10;89.50;;;;;;2087120;28;776;-51
2021/05/11 07:19:52;;;;;;;;;;;17.10;89.60;;;;;;2091037;28;733;-52
2021/05/11 07:21:11;;;;;;;;;;;17.10;89.60;;;;;;2091082;28;738;-51
2021/05/11 07:22:30;;;;;;;;;;;17.10;89.50;;;;;;2077428;28;1635;-50
2021/05/11 07:23:49;;;;;;;;;;;17.00;89.50;;;;;;2079241;28;728;-50
2021/05/11 07:25:12;;;;;;;;;;;17.10;89.60;;;;;;2073731;28;1305;-49
2021/05/11 07:26:31;;;;;;;;;;;17.00;89.70;;;;;;2079725;28;1247;-50
2021/05/11 07:29:40;;;;;;;;;;;17.00;89.90;;;;;;2082578;28;701;-49
2021/05/11 07:31:03;;;;;;;;;;;17.00;89.90;;;;;;2089142;28;1731;-51
2021/05/11 07:32:23;;;;;;;;;;;17.00;90.00;;;;;;2081564;28;1651;-53
2021/05/11 07:33:44;;;;;;;;;;;17.10;90.00;;;;;;2079182;28;733;-50
2021/05/11 07:35:05;;;;;;;;;;;17.10;90.00;;;;;;2082307;28;1379;-52
2021/05/11 07:36:24;;;;;;;;;;;17.10;90.10;;;;;;2065294;28;790;-52
2021/05/11 07:37:43;;;;;;;;;;;17.10;90.10;;;;;;2075946;28;1903;-52
2021/05/11 07:39:02;;;;;;;;;;;17.10;90.10;;;;;;2082558;28;714;-53
2021/05/11 07:40:21;;;;;;;;;;;17.10;90.10;;;;;;2082527;28;795;-51
2021/05/11 07:41:41;;;;;;;;;;;17.10;90.10;;;;;;2081515;28;1762;-50
2021/05/11 07:43:00;;;;;;;;;;;17.10;90.10;;;;;;2090034;28;1040;-50
2021/05/11 07:44:20;;;;;;;;;;;17.10;90.00;;;;;;2091102;28;1051;-52
2021/05/11 07:45:59;;;;;;;;;;;17.10;90.00;;;;;;2081115;28;1467;-50
2021/05/11 07:47:25;;;;;;;;;;;17.10;90.00;;;;;;2092946;28;973;-51
2021/05/11 08:03:08;;;;;;;;;;;17.00;89.60;;;;;;2081743;28;1075;-51
2021/05/11 08:06:22;;;;;;;;;;;17.10;90.10;;;;;;2090633;28;706;-51
2021/05/11 08:14:28;;;;;;;;;;;17.10;89.30;;;;;;2082154;28;753;-51
2021/05/11 08:16:11;;;;;;;;;;;17.10;89.90;;;;;;2090455;28;875;-51
2021/05/11 08:17:29;;;;;;;;;;;17.10;89.20;;;;;;2090426;28;1902;-51
2021/05/11 08:18:57;;;;;;;;;;;17.10;89.20;;;;;;2090470;28;725;-50
2021/05/11 08:22:21;;;;;;;;;;;17.10;89.20;;;;;;2072833;28;714;-50
2021/05/11 08:28:08;;;;;;;;;;;17.10;89.20;;;;;;2072241;28;757;-51
2021/05/11 08:29:28;;;;;;;;;;;17.10;89.20;;;;;;2079586;28;718;-51
2021/05/11 08:30:47;;;;;;;;;;;17.10;89.20;;;;;;2080590;28;1456;-54
2021/05/11 08:32:07;;;;;;;;;;;17.10;89.20;;;;;;2082571;28;1048;-50
2021/05/11 08:33:26;;;;;;;;;;;17.10;89.10;;;;;;2088551;28;1004;-50
2021/05/11 08:34:47;;;;;;;;;;;17.10;89.90;;;;;;2089398;28;1333;-54
2021/05/11 08:36:06;;;;;;;;;;;17.10;89.20;;;;;;2090403;28;718;-51
2021/05/11 08:37:25;;;;;;;;;;;17.10;89.20;;;;;;2081320;28;1971;-52
2021/05/11 08:38:45;;;;;;;;;;;17.10;89.10;;;;;;2081692;28;757;-50
2021/05/11 08:40:04;;;;;;;;;;;17.10;89.10;;;;;;2073049;28;1193;-51
2021/05/11 08:41:24;;;;;;;;;;;17.10;89.10;;;;;;2069937;28;1507;-52
2021/05/11 08:42:43;;;;;;;;;;;17.10;89.00;;;;;;2078523;28;740;-55
2021/05/11 08:44:03;;;;;;;;;;;17.10;89.00;;;;;;2064637;28;732;-51
2021/05/11 08:45:23;;;;;;;;;;;17.10;89.00;;;;;;2075056;28;1480;-51
2021/05/11 08:46:42;;;;;;;;;;;17.10;89.80;;;;;;2065314;28;1625;-52
2021/05/11 08:48:01;;;;;;;;;;;17.10;89.90;;;;;;2083233;28;745;-49
2021/05/11 08:49:20;;;;;;;;;;;17.10;89.20;;;;;;2081242;28;748;-52
2021/05/11 08:50:42;;;;;;;;;;;17.10;89.00;;;;;;2079676;28;1500;-51
2021/05/11 08:52:11;;;;;;;;;;;17.10;89.00;;;;;;2084109;28;1239;-52
2021/05/11 09:06:31;;;;;;;;;;;17.10;89.80;;;;;;2081293;28;760;-50
2021/05/11 09:09:58;;;;;;;;;;;17.10;89.10;;;;;;2086487;28;1008;-52
2021/05/11 09:23:46;;;;;;;;;;;17.10;89.50;;;;;;2089981;28;714;-51
2021/05/11 09:26:48;;;;;;;;;;;17.10;89.90;;;;;;2086971;28;735;-50
2021/05/11 09:28:48;;;;;;;;;;;17.10;90.20;;;;;;2089663;28;687;-50
2021/05/11 09:31:48;;;;;;;;;;;17.10;90.30;;;;;;2079646;28;1383;-51
2021/05/11 09:57:30;;;;;;;;;;;17.10;90.00;;;;;;2079034;28;1542;-50
2021/05/11 09:59:17;;;;;;;;;;;17.10;89.90;;;;;;2088944;28;1290;-49
2021/05/11 10:14:28;;;;;;;;;;;17.10;89.80;;;;;;2089849;28;725;-50
2021/05/11 10:31:25;;;;;;;;;;;17.10;89.70;;;;;;2089628;28;720;-52
2021/05/11 10:38:47;;;;;;;;;;;17.10;89.80;;;;;;2064717;28;1910;-49
2021/05/11 10:44:55;;;;;;;;;;;17.10;89.80;;;;;;2071779;28;739;-51
2021/05/11 10:48:12;;;;;;;;;;;17.10;89.80;;;;;;2082717;28;774;-50
2021/05/11 10:49:35;;;;;;;;;;;17.10;90.20;;;;;;2082982;28;734;-52
2021/05/11 10:50:55;;;;;;;;;;;17.10;89.80;;;;;;2082801;28;963;-52
2021/05/11 10:52:20;;;;;;;;;;;17.10;90.20;;;;;;2082665;28;712;-50
2021/05/11 10:53:54;;;;;;;;;;;17.00;89.70;;;;;;2082277;28;735;-51
2021/05/11 10:55:24;;;;;;;;;;;17.10;89.80;;;;;;2074175;28;1429;-52
2021/05/11 10:56:46;;;;;;;;;;;17.10;89.80;;;;;;2081805;28;764;-52
2021/05/11 10:58:06;;;;;;;;;;;17.10;89.80;;;;;;2074882;28;1957;-51
2021/05/11 11:00:53;;;;;;;;;;;17.10;89.80;;;;;;2085034;28;1158;-51
2021/05/11 11:02:58;;;;;;;;;;;17.10;89.80;;;;;;2067857;28;1321;-50
2021/05/11 11:04:21;;;;;;;;;;;17.10;89.70;;;;;;2072216;28;1498;-49
2021/05/11 11:05:43;;;;;;;;;;;17.10;89.80;;;;;;2077332;28;1468;-50
2021/05/11 11:07:04;;;;;;;;;;;17.10;89.80;;;;;;2082811;28;739;-50
2021/05/11 11:08:30;;;;;;;;;;;17.10;90.20;;;;;;2082617;28;729;-51
2021/05/11 11:09:55;;;;;;;;;;;17.00;89.60;;;;;;2082887;28;718;-48
2021/05/11 11:11:21;;;;;;;;;;;17.00;90.00;;;;;;2073985;28;737;-50
2021/05/11 11:12:41;;;;;;;;;;;17.00;90.10;;;;;;2075806;28;1532;-50
2021/05/11 11:14:00;;;;;;;;;;;17.10;90.20;;;;;;2078555;28;806;-50
2021/05/11 11:15:20;;;;;;;;;;;17.10;90.30;;;;;;2078772;28;1488;-49
2021/05/11 11:16:39;;;;;;;;;;;17.10;90.30;;;;;;2082049;28;743;-51